sensor_id;sensor_type;location;lat;lon;timestamp;P1;durP1;ratioP1;P2;durP2;ratioP2
19879;SDS011;10102;50.828;4.416;2023-02-15T00:01:34;50.22;;;25.92;;
19879;SDS011;10102;50.828;4.416;2023-02-15T00:04:00;47.20;;;24.17;;
19879;SDS011;10102;50.828;4.416;2023-02-15T00:06:26;52.58;;;25.60;;
19879;SDS011;10102;50.828;4.416;2023-02-15T00:08:53;48.50;;;25.65;;
19879;SDS011;10102;50.828;4.416;2023-02-15T00:11:19;49.90;;;25.52;;
19879;SDS011;10102;50.828;4.416;2023-02-15T00:14:22;51.92;;;26.40;;
19879;SDS011;10102;50.828;4.416;2023-02-15T00:16:49;50.63;;;25.35;;
19879;SDS011;10102;50.828;4.416;2023-02-15T00:19:17;53.42;;;25.67;;
19879;SDS011;10102;50.828;4.416;2023-02-15T00:21:43;50.65;;;25.48;;
19879;SDS011;10102;50.828;4.416;2023-02-15T00:24:10;46.60;;;25.38;;
19879;SDS011;10102;50.828;4.416;2023-02-15T00:26:38;49.08;;;25.33;;
19879;SDS011;10102;50.828;4.416;2023-02-15T00:29:05;51.08;;;26.73;;
19879;SDS011;10102;50.828;4.416;2023-02-15T00:31:32;52.78;;;24.58;;
19879;SDS011;10102;50.828;4.416;2023-02-15T00:34:10;47.53;;;25.55;;
19879;SDS011;10102;50.828;4.416;2023-02-15T00:36:38;49.78;;;26.10;;
19879;SDS011;10102;50.828;4.416;2023-02-15T00:39:04;51.10;;;25.02;;
19879;SDS011;10102;50.828;4.416;2023-02-15T00:41:31;55.40;;;26.92;;
19879;SDS011;10102;50.828;4.416;2023-02-15T00:43:57;54.13;;;26.13;;
19879;SDS011;10102;50.828;4.416;2023-02-15T00:46:23;45.92;;;25.00;;
19879;SDS011;10102;50.828;4.416;2023-02-15T00:48:49;50.15;;;25.48;;
19879;SDS011;10102;50.828;4.416;2023-02-15T00:51:15;48.70;;;23.23;;
19879;SDS011;10102;50.828;4.416;2023-02-15T00:53:42;56.80;;;26.73;;
19879;SDS011;10102;50.828;4.416;2023-02-15T00:56:09;49.13;;;25.13;;
19879;SDS011;10102;50.828;4.416;2023-02-15T00:58:35;47.53;;;24.60;;
19879;SDS011;10102;50.828;4.416;2023-02-15T01:01:05;49.13;;;25.55;;
19879;SDS011;10102;50.828;4.416;2023-02-15T01:03:33;48.28;;;24.33;;
19879;SDS011;10102;50.828;4.416;2023-02-15T01:05:59;49.22;;;25.63;;
19879;SDS011;10102;50.828;4.416;2023-02-15T01:08:25;52.78;;;26.92;;
19879;SDS011;10102;50.828;4.416;2023-02-15T01:10:51;52.55;;;24.98;;
19879;SDS011;10102;50.828;4.416;2023-02-15T01:13:17;46.00;;;24.75;;
19879;SDS011;10102;50.828;4.416;2023-02-15T01:15:43;48.80;;;24.67;;
19879;SDS011;10102;50.828;4.416;2023-02-15T01:18:09;54.33;;;25.73;;
19879;SDS011;10102;50.828;4.416;2023-02-15T01:20:37;52.85;;;25.90;;
19879;SDS011;10102;50.828;4.416;2023-02-15T01:23:04;54.95;;;25.45;;
19879;SDS011;10102;50.828;4.416;2023-02-15T01:25:32;48.55;;;25.30;;
19879;SDS011;10102;50.828;4.416;2023-02-15T01:27:58;50.72;;;26.10;;
19879;SDS011;10102;50.828;4.416;2023-02-15T01:30:24;55.38;;;26.27;;
19879;SDS011;10102;50.828;4.416;2023-02-15T01:32:49;51.85;;;25.02;;
19879;SDS011;10102;50.828;4.416;2023-02-15T01:35:15;53.47;;;23.98;;
19879;SDS011;10102;50.828;4.416;2023-02-15T01:37:40;51.95;;;26.27;;
19879;SDS011;10102;50.828;4.416;2023-02-15T01:40:08;43.83;;;23.98;;
19879;SDS011;10102;50.828;4.416;2023-02-15T01:42:39;48.83;;;23.77;;
19879;SDS011;10102;50.828;4.416;2023-02-15T01:45:14;51.38;;;24.45;;
19879;SDS011;10102;50.828;4.416;2023-02-15T01:50:17;47.95;;;24.17;;
19879;SDS011;10102;50.828;4.416;2023-02-15T01:52:46;48.25;;;23.95;;
19879;SDS011;10102;50.828;4.416;2023-02-15T01:55:17;56.95;;;23.95;;
19879;SDS011;10102;50.828;4.416;2023-02-15T01:57:45;49.85;;;24.77;;
19879;SDS011;10102;50.828;4.416;2023-02-15T02:00:12;51.55;;;23.45;;
19879;SDS011;10102;50.828;4.416;2023-02-15T02:02:39;43.13;;;22.58;;
19879;SDS011;10102;50.828;4.416;2023-02-15T02:05:07;47.03;;;23.25;;
19879;SDS011;10102;50.828;4.416;2023-02-15T02:07:35;44.03;;;21.98;;
19879;SDS011;10102;50.828;4.416;2023-02-15T02:10:07;47.15;;;23.13;;
19879;SDS011;10102;50.828;4.416;2023-02-15T02:12:34;48.97;;;23.02;;
19879;SDS011;10102;50.828;4.416;2023-02-15T02:15:02;42.80;;;21.67;;
19879;SDS011;10102;50.828;4.416;2023-02-15T02:20:26;45.92;;;22.33;;
19879;SDS011;10102;50.828;4.416;2023-02-15T02:23:05;48.05;;;21.95;;
19879;SDS011;10102;50.828;4.416;2023-02-15T02:34:10;45.05;;;22.90;;
19879;SDS011;10102;50.828;4.416;2023-02-15T02:39:32;47.50;;;22.48;;
19879;SDS011;10102;50.828;4.416;2023-02-15T02:44:41;42.53;;;22.05;;
19879;SDS011;10102;50.828;4.416;2023-02-15T02:47:27;44.78;;;21.73;;
19879;SDS011;10102;50.828;4.416;2023-02-15T02:50:05;42.70;;;22.95;;
19879;SDS011;10102;50.828;4.416;2023-02-15T02:55:13;42.55;;;22.10;;
19879;SDS011;10102;50.828;4.416;2023-02-15T03:03:49;43.08;;;22.13;;
19879;SDS011;10102;50.828;4.416;2023-02-15T03:06:25;41.78;;;22.23;;
19879;SDS011;10102;50.828;4.416;2023-02-15T03:09:07;47.78;;;24.27;;
19879;SDS011;10102;50.828;4.416;2023-02-15T03:11:47;39.47;;;22.88;;
19879;SDS011;10102;50.828;4.416;2023-02-15T03:14:14;47.17;;;23.55;;
19879;SDS011;10102;50.828;4.416;2023-02-15T03:16:42;51.25;;;24.27;;
19879;SDS011;10102;50.828;4.416;2023-02-15T03:19:27;43.92;;;23.77;;
19879;SDS011;10102;50.828;4.416;2023-02-15T03:22:00;47.63;;;25.00;;
19879;SDS011;10102;50.828;4.416;2023-02-15T03:24:44;44.42;;;24.80;;
19879;SDS011;10102;50.828;4.416;2023-02-15T03:27:17;48.50;;;24.20;;
19879;SDS011;10102;50.828;4.416;2023-02-15T03:29:48;50.70;;;26.00;;
19879;SDS011;10102;50.828;4.416;2023-02-15T03:32:18;47.00;;;24.88;;
19879;SDS011;10102;50.828;4.416;2023-02-15T03:34:44;46.80;;;24.00;;
19879;SDS011;10102;50.828;4.416;2023-02-15T03:37:53;45.65;;;23.77;;
19879;SDS011;10102;50.828;4.416;2023-02-15T03:40:19;44.90;;;24.17;;
19879;SDS011;10102;50.828;4.416;2023-02-15T03:43:19;47.33;;;24.85;;
19879;SDS011;10102;50.828;4.416;2023-02-15T03:45:47;45.60;;;24.35;;
19879;SDS011;10102;50.828;4.416;2023-02-15T03:48:24;53.00;;;25.63;;
19879;SDS011;10102;50.828;4.416;2023-02-15T03:51:09;45.47;;;23.88;;
19879;SDS011;10102;50.828;4.416;2023-02-15T03:53:58;43.97;;;22.95;;
19879;SDS011;10102;50.828;4.416;2023-02-15T03:56:30;53.75;;;25.00;;
19879;SDS011;10102;50.828;4.416;2023-02-15T03:58:58;50.22;;;24.40;;
19879;SDS011;10102;50.828;4.416;2023-02-15T04:01:53;43.20;;;23.75;;
19879;SDS011;10102;50.828;4.416;2023-02-15T04:04:40;48.22;;;23.88;;
19879;SDS011;10102;50.828;4.416;2023-02-15T04:07:12;40.53;;;22.50;;
19879;SDS011;10102;50.828;4.416;2023-02-15T04:09:38;48.58;;;23.70;;
19879;SDS011;10102;50.828;4.416;2023-02-15T04:12:23;47.90;;;23.90;;
19879;SDS011;10102;50.828;4.416;2023-02-15T04:14:49;49.35;;;23.65;;
19879;SDS011;10102;50.828;4.416;2023-02-15T04:17:33;50.45;;;24.55;;
19879;SDS011;10102;50.828;4.416;2023-02-15T04:20:01;46.78;;;24.83;;
19879;SDS011;10102;50.828;4.416;2023-02-15T04:22:46;41.08;;;22.45;;
19879;SDS011;10102;50.828;4.416;2023-02-15T04:25:31;45.45;;;24.00;;
19879;SDS011;10102;50.828;4.416;2023-02-15T04:27:57;49.85;;;24.52;;
19879;SDS011;10102;50.828;4.416;2023-02-15T04:30:23;42.72;;;23.27;;
19879;SDS011;10102;50.828;4.416;2023-02-15T04:32:50;46.53;;;24.23;;
19879;SDS011;10102;50.828;4.416;2023-02-15T04:35:16;50.15;;;24.85;;
19879;SDS011;10102;50.828;4.416;2023-02-15T04:37:42;43.13;;;23.75;;
19879;SDS011;10102;50.828;4.416;2023-02-15T04:40:10;46.65;;;23.45;;
19879;SDS011;10102;50.828;4.416;2023-02-15T04:42:37;44.97;;;24.15;;
19879;SDS011;10102;50.828;4.416;2023-02-15T04:45:03;49.97;;;24.90;;
19879;SDS011;10102;50.828;4.416;2023-02-15T04:47:29;50.42;;;25.40;;
19879;SDS011;10102;50.828;4.416;2023-02-15T04:49:55;50.70;;;24.52;;
19879;SDS011;10102;50.828;4.416;2023-02-15T04:52:21;46.78;;;24.50;;
19879;SDS011;10102;50.828;4.416;2023-02-15T04:54:46;44.47;;;24.55;;
19879;SDS011;10102;50.828;4.416;2023-02-15T04:57:13;47.55;;;23.80;;
19879;SDS011;10102;50.828;4.416;2023-02-15T04:59:38;50.13;;;23.80;;
19879;SDS011;10102;50.828;4.416;2023-02-15T05:02:04;43.15;;;22.67;;
19879;SDS011;10102;50.828;4.416;2023-02-15T05:04:30;45.78;;;23.42;;
19879;SDS011;10102;50.828;4.416;2023-02-15T05:06:56;49.22;;;23.95;;
19879;SDS011;10102;50.828;4.416;2023-02-15T05:09:21;49.90;;;23.65;;
19879;SDS011;10102;50.828;4.416;2023-02-15T05:11:47;48.25;;;23.08;;
19879;SDS011;10102;50.828;4.416;2023-02-15T05:14:13;43.83;;;22.98;;
19879;SDS011;10102;50.828;4.416;2023-02-15T05:16:39;44.78;;;22.92;;
19879;SDS011;10102;50.828;4.416;2023-02-15T05:19:05;41.15;;;21.92;;
19879;SDS011;10102;50.828;4.416;2023-02-15T05:21:31;43.15;;;23.63;;
19879;SDS011;10102;50.828;4.416;2023-02-15T05:23:58;45.33;;;23.17;;
19879;SDS011;10102;50.828;4.416;2023-02-15T05:26:24;46.47;;;23.95;;
19879;SDS011;10102;50.828;4.416;2023-02-15T05:29:09;51.15;;;23.85;;
19879;SDS011;10102;50.828;4.416;2023-02-15T05:31:35;48.95;;;22.40;;
19879;SDS011;10102;50.828;4.416;2023-02-15T05:34:02;48.33;;;23.75;;
19879;SDS011;10102;50.828;4.416;2023-02-15T05:36:28;47.00;;;23.17;;
19879;SDS011;10102;50.828;4.416;2023-02-15T05:38:54;47.25;;;23.25;;
19879;SDS011;10102;50.828;4.416;2023-02-15T05:41:20;47.20;;;23.88;;
19879;SDS011;10102;50.828;4.416;2023-02-15T05:43:47;48.13;;;23.67;;
19879;SDS011;10102;50.828;4.416;2023-02-15T05:46:13;43.13;;;23.17;;
19879;SDS011;10102;50.828;4.416;2023-02-15T05:48:40;38.38;;;20.90;;
19879;SDS011;10102;50.828;4.416;2023-02-15T05:51:12;44.10;;;22.92;;
19879;SDS011;10102;50.828;4.416;2023-02-15T05:53:40;47.45;;;23.30;;
19879;SDS011;10102;50.828;4.416;2023-02-15T05:56:07;48.35;;;23.42;;
19879;SDS011;10102;50.828;4.416;2023-02-15T05:58:35;43.92;;;22.90;;
19879;SDS011;10102;50.828;4.416;2023-02-15T06:01:12;39.15;;;22.50;;
19879;SDS011;10102;50.828;4.416;2023-02-15T06:03:39;47.90;;;23.48;;
19879;SDS011;10102;50.828;4.416;2023-02-15T06:06:05;46.50;;;23.15;;
19879;SDS011;10102;50.828;4.416;2023-02-15T06:08:32;40.78;;;22.75;;
19879;SDS011;10102;50.828;4.416;2023-02-15T06:10:58;45.83;;;23.90;;
19879;SDS011;10102;50.828;4.416;2023-02-15T06:13:23;48.70;;;23.15;;
19879;SDS011;10102;50.828;4.416;2023-02-15T06:15:49;48.60;;;23.75;;
19879;SDS011;10102;50.828;4.416;2023-02-15T06:18:15;46.30;;;22.58;;
19879;SDS011;10102;50.828;4.416;2023-02-15T06:20:41;42.90;;;23.80;;
19879;SDS011;10102;50.828;4.416;2023-02-15T06:23:06;46.58;;;23.52;;
19879;SDS011;10102;50.828;4.416;2023-02-15T06:25:32;42.90;;;22.63;;
19879;SDS011;10102;50.828;4.416;2023-02-15T06:27:58;44.78;;;23.20;;
19879;SDS011;10102;50.828;4.416;2023-02-15T06:30:24;45.38;;;21.00;;
19879;SDS011;10102;50.828;4.416;2023-02-15T06:32:50;48.83;;;22.60;;
19879;SDS011;10102;50.828;4.416;2023-02-15T06:35:15;43.72;;;23.33;;
19879;SDS011;10102;50.828;4.416;2023-02-15T06:37:41;47.63;;;22.63;;
19879;SDS011;10102;50.828;4.416;2023-02-15T06:40:07;46.08;;;23.05;;
19879;SDS011;10102;50.828;4.416;2023-02-15T06:42:33;49.35;;;24.10;;
19879;SDS011;10102;50.828;4.416;2023-02-15T06:44:59;46.53;;;22.23;;
19879;SDS011;10102;50.828;4.416;2023-02-15T06:47:25;48.30;;;22.55;;
19879;SDS011;10102;50.828;4.416;2023-02-15T06:49:51;41.08;;;21.70;;
19879;SDS011;10102;50.828;4.416;2023-02-15T06:52:17;45.95;;;22.23;;
19879;SDS011;10102;50.828;4.416;2023-02-15T06:54:43;49.88;;;23.58;;
19879;SDS011;10102;50.828;4.416;2023-02-15T06:57:09;48.45;;;22.40;;
19879;SDS011;10102;50.828;4.416;2023-02-15T06:59:34;49.03;;;21.85;;
19879;SDS011;10102;50.828;4.416;2023-02-15T07:02:00;43.85;;;23.10;;
19879;SDS011;10102;50.828;4.416;2023-02-15T07:04:27;44.60;;;23.35;;
19879;SDS011;10102;50.828;4.416;2023-02-15T07:06:54;49.47;;;22.92;;
19879;SDS011;10102;50.828;4.416;2023-02-15T07:09:20;44.22;;;22.33;;
19879;SDS011;10102;50.828;4.416;2023-02-15T07:11:46;43.35;;;22.90;;
19879;SDS011;10102;50.828;4.416;2023-02-15T07:14:30;39.08;;;22.63;;
19879;SDS011;10102;50.828;4.416;2023-02-15T07:16:57;40.95;;;22.42;;
19879;SDS011;10102;50.828;4.416;2023-02-15T07:19:22;48.47;;;24.05;;
19879;SDS011;10102;50.828;4.416;2023-02-15T07:21:48;47.05;;;24.27;;
19879;SDS011;10102;50.828;4.416;2023-02-15T07:24:14;51.03;;;23.40;;
19879;SDS011;10102;50.828;4.416;2023-02-15T07:26:40;42.42;;;23.08;;
19879;SDS011;10102;50.828;4.416;2023-02-15T07:29:05;42.78;;;23.38;;
19879;SDS011;10102;50.828;4.416;2023-02-15T07:31:32;51.28;;;24.63;;
19879;SDS011;10102;50.828;4.416;2023-02-15T07:33:57;44.88;;;23.85;;
19879;SDS011;10102;50.828;4.416;2023-02-15T07:36:23;45.42;;;24.08;;
19879;SDS011;10102;50.828;4.416;2023-02-15T07:38:49;46.97;;;24.83;;
19879;SDS011;10102;50.828;4.416;2023-02-15T07:41:15;49.55;;;26.00;;
19879;SDS011;10102;50.828;4.416;2023-02-15T07:43:42;47.80;;;24.98;;
19879;SDS011;10102;50.828;4.416;2023-02-15T07:46:10;54.53;;;27.10;;
19879;SDS011;10102;50.828;4.416;2023-02-15T07:48:38;49.40;;;25.67;;
19879;SDS011;10102;50.828;4.416;2023-02-15T07:51:05;53.92;;;26.75;;
19879;SDS011;10102;50.828;4.416;2023-02-15T07:53:33;54.05;;;26.67;;
19879;SDS011;10102;50.828;4.416;2023-02-15T07:56:00;54.70;;;26.17;;
19879;SDS011;10102;50.828;4.416;2023-02-15T07:58:27;57.97;;;26.98;;
19879;SDS011;10102;50.828;4.416;2023-02-15T08:01:13;51.15;;;25.75;;
19879;SDS011;10102;50.828;4.416;2023-02-15T08:03:39;49.65;;;26.30;;
19879;SDS011;10102;50.828;4.416;2023-02-15T08:06:05;50.60;;;26.13;;
19879;SDS011;10102;50.828;4.416;2023-02-15T08:08:32;50.40;;;27.25;;
19879;SDS011;10102;50.828;4.416;2023-02-15T08:13:44;53.90;;;26.48;;
19879;SDS011;10102;50.828;4.416;2023-02-15T08:16:34;46.95;;;25.38;;
19879;SDS011;10102;50.828;4.416;2023-02-15T08:21:33;53.45;;;26.58;;
19879;SDS011;10102;50.828;4.416;2023-02-15T08:23:59;49.60;;;26.00;;
19879;SDS011;10102;50.828;4.416;2023-02-15T08:26:26;47.97;;;25.50;;
19879;SDS011;10102;50.828;4.416;2023-02-15T08:28:52;55.33;;;27.08;;
19879;SDS011;10102;50.828;4.416;2023-02-15T08:31:19;48.13;;;24.13;;
19879;SDS011;10102;50.828;4.416;2023-02-15T08:33:45;58.65;;;26.17;;
19879;SDS011;10102;50.828;4.416;2023-02-15T08:36:13;48.80;;;25.05;;
19879;SDS011;10102;50.828;4.416;2023-02-15T08:38:42;51.70;;;25.33;;
19879;SDS011;10102;50.828;4.416;2023-02-15T08:41:12;51.85;;;26.17;;
19879;SDS011;10102;50.828;4.416;2023-02-15T08:43:41;53.03;;;25.83;;
19879;SDS011;10102;50.828;4.416;2023-02-15T08:46:07;53.08;;;25.02;;
19879;SDS011;10102;50.828;4.416;2023-02-15T08:48:33;49.00;;;25.13;;
19879;SDS011;10102;50.828;4.416;2023-02-15T08:51:03;56.63;;;25.55;;
19879;SDS011;10102;50.828;4.416;2023-02-15T08:53:36;49.55;;;24.40;;
19879;SDS011;10102;50.828;4.416;2023-02-15T08:56:03;48.45;;;24.40;;
19879;SDS011;10102;50.828;4.416;2023-02-15T08:58:29;51.10;;;24.83;;
19879;SDS011;10102;50.828;4.416;2023-02-15T09:00:56;48.83;;;24.92;;
19879;SDS011;10102;50.828;4.416;2023-02-15T09:03:22;48.17;;;24.65;;
19879;SDS011;10102;50.828;4.416;2023-02-15T09:05:48;44.65;;;25.05;;
19879;SDS011;10102;50.828;4.416;2023-02-15T09:08:14;49.95;;;24.65;;
19879;SDS011;10102;50.828;4.416;2023-02-15T09:10:40;45.15;;;23.50;;
19879;SDS011;10102;50.828;4.416;2023-02-15T09:13:06;50.25;;;24.63;;
19879;SDS011;10102;50.828;4.416;2023-02-15T09:15:31;45.80;;;23.58;;
19879;SDS011;10102;50.828;4.416;2023-02-15T09:17:58;45.53;;;21.75;;
19879;SDS011;10102;50.828;4.416;2023-02-15T09:20:31;36.67;;;19.52;;
19879;SDS011;10102;50.828;4.416;2023-02-15T09:22:57;38.22;;;19.10;;
19879;SDS011;10102;50.828;4.416;2023-02-15T09:25:23;45.00;;;19.30;;
19879;SDS011;10102;50.828;4.416;2023-02-15T09:27:48;38.00;;;17.45;;
19879;SDS011;10102;50.828;4.416;2023-02-15T09:30:14;38.15;;;17.95;;
19879;SDS011;10102;50.828;4.416;2023-02-15T09:32:40;37.90;;;18.13;;
19879;SDS011;10102;50.828;4.416;2023-02-15T09:35:06;32.10;;;17.75;;
19879;SDS011;10102;50.828;4.416;2023-02-15T09:37:32;37.25;;;19.27;;
19879;SDS011;10102;50.828;4.416;2023-02-15T09:39:58;34.70;;;18.13;;
19879;SDS011;10102;50.828;4.416;2023-02-15T09:45:26;39.63;;;17.17;;
19879;SDS011;10102;50.828;4.416;2023-02-15T09:48:03;41.55;;;19.27;;
19879;SDS011;10102;50.828;4.416;2023-02-15T10:01:48;42.90;;;19.08;;
19879;SDS011;10102;50.828;4.416;2023-02-15T10:13:01;37.42;;;18.80;;
19879;SDS011;10102;50.828;4.416;2023-02-15T10:15:31;44.10;;;19.33;;
19879;SDS011;10102;50.828;4.416;2023-02-15T10:20:39;40.58;;;20.27;;
19879;SDS011;10102;50.828;4.416;2023-02-15T10:23:41;37.25;;;18.63;;
19879;SDS011;10102;50.828;4.416;2023-02-15T10:26:28;38.63;;;18.48;;
19879;SDS011;10102;50.828;4.416;2023-02-15T10:29:04;33.80;;;19.27;;
19879;SDS011;10102;50.828;4.416;2023-02-15T10:32:05;38.05;;;18.65;;
19879;SDS011;10102;50.828;4.416;2023-02-15T10:34:59;35.67;;;18.15;;
19879;SDS011;10102;50.828;4.416;2023-02-15T10:51:03;35.65;;;18.70;;
19879;SDS011;10102;50.828;4.416;2023-02-15T10:56:24;36.72;;;20.00;;
19879;SDS011;10102;50.828;4.416;2023-02-15T11:01:37;32.58;;;19.85;;
19879;SDS011;10102;50.828;4.416;2023-02-15T11:07:08;43.58;;;21.13;;
19879;SDS011;10102;50.828;4.416;2023-02-15T11:09:44;37.78;;;19.73;;
19879;SDS011;10102;50.828;4.416;2023-02-15T11:12:35;38.95;;;20.83;;
19879;SDS011;10102;50.828;4.416;2023-02-15T11:17:38;34.53;;;20.08;;
19879;SDS011;10102;50.828;4.416;2023-02-15T11:23:01;38.45;;;21.52;;
19879;SDS011;10102;50.828;4.416;2023-02-15T11:25:31;42.15;;;22.33;;
19879;SDS011;10102;50.828;4.416;2023-02-15T11:27:59;38.42;;;21.77;;
19879;SDS011;10102;50.828;4.416;2023-02-15T11:30:35;40.40;;;21.85;;
19879;SDS011;10102;50.828;4.416;2023-02-15T11:33:13;37.10;;;21.40;;
19879;SDS011;10102;50.828;4.416;2023-02-15T11:35:48;35.65;;;20.27;;
19879;SDS011;10102;50.828;4.416;2023-02-15T11:38:20;47.97;;;22.30;;
19879;SDS011;10102;50.828;4.416;2023-02-15T11:40:49;38.38;;;21.13;;
19879;SDS011;10102;50.828;4.416;2023-02-15T11:43:33;39.45;;;21.55;;
19879;SDS011;10102;50.828;4.416;2023-02-15T11:46:19;38.55;;;21.90;;
19879;SDS011;10102;50.828;4.416;2023-02-15T11:48:46;38.10;;;22.27;;
19879;SDS011;10102;50.828;4.416;2023-02-15T11:51:13;38.83;;;22.55;;
19879;SDS011;10102;50.828;4.416;2023-02-15T11:53:42;38.40;;;22.30;;
19879;SDS011;10102;50.828;4.416;2023-02-15T11:56:15;41.03;;;22.63;;
19879;SDS011;10102;50.828;4.416;2023-02-15T12:01:40;45.17;;;24.00;;
19879;SDS011;10102;50.828;4.416;2023-02-15T12:04:10;38.35;;;23.85;;
19879;SDS011;10102;50.828;4.416;2023-02-15T12:06:53;41.75;;;22.83;;
19879;SDS011;10102;50.828;4.416;2023-02-15T12:09:45;39.00;;;23.85;;
19879;SDS011;10102;50.828;4.416;2023-02-15T12:12:26;48.53;;;22.95;;
19879;SDS011;10102;50.828;4.416;2023-02-15T12:15:00;36.97;;;23.08;;
19879;SDS011;10102;50.828;4.416;2023-02-15T12:17:27;46.03;;;23.55;;
19879;SDS011;10102;50.828;4.416;2023-02-15T12:20:07;49.85;;;23.95;;
19879;SDS011;10102;50.828;4.416;2023-02-15T12:23:00;40.38;;;24.00;;
19879;SDS011;10102;50.828;4.416;2023-02-15T12:25:32;38.92;;;23.05;;
19879;SDS011;10102;50.828;4.416;2023-02-15T12:31:09;42.78;;;23.90;;
19879;SDS011;10102;50.828;4.416;2023-02-15T12:33:45;44.53;;;23.88;;
19879;SDS011;10102;50.828;4.416;2023-02-15T12:38:43;39.78;;;23.95;;
19879;SDS011;10102;50.828;4.416;2023-02-15T12:41:29;42.70;;;22.63;;
19879;SDS011;10102;50.828;4.416;2023-02-15T12:46:44;40.47;;;23.98;;
19879;SDS011;10102;50.828;4.416;2023-02-15T12:49:39;42.00;;;24.05;;
19879;SDS011;10102;50.828;4.416;2023-02-15T12:54:47;43.78;;;23.73;;
19879;SDS011;10102;50.828;4.416;2023-02-15T12:59:48;41.63;;;23.65;;
19879;SDS011;10102;50.828;4.416;2023-02-15T13:02:20;41.25;;;23.75;;
19879;SDS011;10102;50.828;4.416;2023-02-15T13:05:04;40.53;;;24.15;;
19879;SDS011;10102;50.828;4.416;2023-02-15T13:07:50;39.97;;;24.38;;
19879;SDS011;10102;50.828;4.416;2023-02-15T13:10:24;38.92;;;23.50;;
19879;SDS011;10102;50.828;4.416;2023-02-15T13:13:11;45.15;;;24.27;;
19879;SDS011;10102;50.828;4.416;2023-02-15T13:15:46;43.95;;;24.83;;
19879;SDS011;10102;50.828;4.416;2023-02-15T13:18:16;41.85;;;24.05;;
19879;SDS011;10102;50.828;4.416;2023-02-15T13:20:50;39.53;;;23.50;;
19879;SDS011;10102;50.828;4.416;2023-02-15T13:23:23;44.67;;;23.85;;
19879;SDS011;10102;50.828;4.416;2023-02-15T13:25:52;41.45;;;23.52;;
19879;SDS011;10102;50.828;4.416;2023-02-15T13:28:25;41.97;;;23.08;;
19879;SDS011;10102;50.828;4.416;2023-02-15T13:31:13;41.92;;;24.85;;
19879;SDS011;10102;50.828;4.416;2023-02-15T13:33:42;40.85;;;22.67;;
19879;SDS011;10102;50.828;4.416;2023-02-15T13:47:46;49.53;;;23.15;;
19879;SDS011;10102;50.828;4.416;2023-02-15T13:56:19;54.33;;;26.88;;
19879;SDS011;10102;50.828;4.416;2023-02-15T14:01:39;46.22;;;25.25;;
19879;SDS011;10102;50.828;4.416;2023-02-15T14:09:45;47.75;;;25.35;;
19879;SDS011;10102;50.828;4.416;2023-02-15T14:18:23;51.17;;;25.45;;
19879;SDS011;10102;50.828;4.416;2023-02-15T14:31:25;55.33;;;27.55;;
19879;SDS011;10102;50.828;4.416;2023-02-15T14:33:57;50.20;;;27.50;;
19879;SDS011;10102;50.828;4.416;2023-02-15T14:36:24;53.25;;;28.52;;
19879;SDS011;10102;50.828;4.416;2023-02-15T14:41:27;58.60;;;28.88;;
19879;SDS011;10102;50.828;4.416;2023-02-15T14:49:50;51.42;;;28.35;;
19879;SDS011;10102;50.828;4.416;2023-02-15T14:52:16;50.25;;;25.80;;
19879;SDS011;10102;50.828;4.416;2023-02-15T14:59:37;51.70;;;28.50;;
19879;SDS011;10102;50.828;4.416;2023-02-15T15:04:41;52.38;;;28.60;;
19879;SDS011;10102;50.828;4.416;2023-02-15T15:07:22;52.70;;;28.38;;
19879;SDS011;10102;50.828;4.416;2023-02-15T15:10:03;51.03;;;27.38;;
19879;SDS011;10102;50.828;4.416;2023-02-15T15:12:52;55.80;;;29.02;;
19879;SDS011;10102;50.828;4.416;2023-02-15T15:18:01;53.78;;;30.25;;
19879;SDS011;10102;50.828;4.416;2023-02-15T15:25:44;58.83;;;29.42;;
19879;SDS011;10102;50.828;4.416;2023-02-15T15:31:20;59.20;;;30.05;;
19879;SDS011;10102;50.828;4.416;2023-02-15T15:49:48;56.90;;;30.55;;
19879;SDS011;10102;50.828;4.416;2023-02-15T15:52:15;61.63;;;29.73;;
19879;SDS011;10102;50.828;4.416;2023-02-15T15:54:46;62.35;;;30.60;;
19879;SDS011;10102;50.828;4.416;2023-02-15T15:57:19;55.85;;;30.08;;
19879;SDS011;10102;50.828;4.416;2023-02-15T15:59:54;60.08;;;29.95;;
19879;SDS011;10102;50.828;4.416;2023-02-15T16:02:24;65.07;;;31.23;;
19879;SDS011;10102;50.828;4.416;2023-02-15T16:04:51;59.20;;;30.40;;
19879;SDS011;10102;50.828;4.416;2023-02-15T16:12:33;57.63;;;29.27;;
19879;SDS011;10102;50.828;4.416;2023-02-15T16:15:04;59.22;;;30.00;;
19879;SDS011;10102;50.828;4.416;2023-02-15T16:17:52;54.67;;;26.42;;
19879;SDS011;10102;50.828;4.416;2023-02-15T16:20:29;53.85;;;28.77;;
19879;SDS011;10102;50.828;4.416;2023-02-15T16:28:16;54.70;;;29.45;;
19879;SDS011;10102;50.828;4.416;2023-02-15T16:30:43;50.05;;;27.98;;
19879;SDS011;10102;50.828;4.416;2023-02-15T16:33:13;57.72;;;28.63;;
19879;SDS011;10102;50.828;4.416;2023-02-15T16:36:02;63.40;;;29.10;;
19879;SDS011;10102;50.828;4.416;2023-02-15T16:41:11;55.70;;;27.38;;
19879;SDS011;10102;50.828;4.416;2023-02-15T16:43:44;54.20;;;29.10;;
19879;SDS011;10102;50.828;4.416;2023-02-15T16:46:16;53.53;;;29.17;;
19879;SDS011;10102;50.828;4.416;2023-02-15T16:48:49;53.50;;;29.27;;
19879;SDS011;10102;50.828;4.416;2023-02-15T16:51:22;59.33;;;29.92;;
19879;SDS011;10102;50.828;4.416;2023-02-15T16:53:51;49.30;;;27.38;;
19879;SDS011;10102;50.828;4.416;2023-02-15T16:56:22;53.75;;;28.05;;
19879;SDS011;10102;50.828;4.416;2023-02-15T16:58:51;57.60;;;29.27;;
19879;SDS011;10102;50.828;4.416;2023-02-15T17:01:20;60.33;;;29.83;;
19879;SDS011;10102;50.828;4.416;2023-02-15T17:03:49;53.45;;;27.98;;
19879;SDS011;10102;50.828;4.416;2023-02-15T17:06:21;47.63;;;27.30;;
19879;SDS011;10102;50.828;4.416;2023-02-15T17:08:51;54.63;;;28.55;;
19879;SDS011;10102;50.828;4.416;2023-02-15T17:11:21;60.30;;;29.38;;
19879;SDS011;10102;50.828;4.416;2023-02-15T17:16:50;61.13;;;31.85;;
19879;SDS011;10102;50.828;4.416;2023-02-15T17:19:21;58.08;;;30.67;;
19879;SDS011;10102;50.828;4.416;2023-02-15T17:21:56;63.63;;;31.83;;
19879;SDS011;10102;50.828;4.416;2023-02-15T17:24:37;66.28;;;32.55;;
19879;SDS011;10102;50.828;4.416;2023-02-15T17:27:06;57.97;;;29.80;;
19879;SDS011;10102;50.828;4.416;2023-02-15T17:29:40;62.25;;;31.75;;
19879;SDS011;10102;50.828;4.416;2023-02-15T17:32:14;60.80;;;32.03;;
19879;SDS011;10102;50.828;4.416;2023-02-15T17:34:48;56.47;;;31.35;;
19879;SDS011;10102;50.828;4.416;2023-02-15T17:40:07;53.70;;;30.77;;
19879;SDS011;10102;50.828;4.416;2023-02-15T17:42:49;67.00;;;31.92;;
19879;SDS011;10102;50.828;4.416;2023-02-15T17:45:15;59.45;;;32.75;;
19879;SDS011;10102;50.828;4.416;2023-02-15T17:47:45;63.15;;;32.67;;
19879;SDS011;10102;50.828;4.416;2023-02-15T17:50:17;60.03;;;31.27;;
19879;SDS011;10102;50.828;4.416;2023-02-15T17:52:48;54.72;;;29.45;;
19879;SDS011;10102;50.828;4.416;2023-02-15T17:55:15;57.20;;;31.42;;
19879;SDS011;10102;50.828;4.416;2023-02-15T17:58:02;61.33;;;30.25;;
19879;SDS011;10102;50.828;4.416;2023-02-15T18:00:30;59.70;;;30.70;;
19879;SDS011;10102;50.828;4.416;2023-02-15T18:03:15;55.38;;;29.60;;
19879;SDS011;10102;50.828;4.416;2023-02-15T18:06:00;57.92;;;29.77;;
19879;SDS011;10102;50.828;4.416;2023-02-15T18:08:45;57.40;;;30.73;;
19879;SDS011;10102;50.828;4.416;2023-02-15T18:11:29;55.03;;;28.98;;